• Join FlightAware (Why Join?)
  • Login
  • US Flag 
03:10PM EDT


 

Airport Tracker/Info


-or-


 

Live Flight TrackerFlight Track Log ✈ WSG356 ✈ 23-May-2013 ✈ CYQT - CYXL

Flight Track Log - Related Links

Times and Time Zones

All times are in EDT time to prevent confusion due to time zone crossing. See the WSG356 flight status page for this flight to view local times or setup timezone preferences in your user account.

Time Position Orientation Groundspeed Altitude Reporting Facility
EDT Latitude Longitude Course Direction KTS MPH feet Rate Location/Type
09:30PM 48.3500 -89.3167 317° Northwest 130 150 3,300  Level Winnipeg Center
09:31PM 48.3500 -89.3667 270° West 130 150 6,600 3,060 Climbing Winnipeg Center
09:32PM 48.3500 -89.4333 270° West 150 173 9,500 2,460 Climbing Winnipeg Center
09:34PM 48.4167 -89.5000 326° Northwest 160 184 14,100 1,500 Climbing Winnipeg Center
09:35PM 48.4667 -89.5667 319° Northwest 230 265 14,100  Level Winnipeg Center
09:36PM 48.6900 -89.7757 317° Northwest  Level Estimated
09:36PM 48.5167 -89.6333 319° Northwest 250 288 14,100  Level Winnipeg Center
09:37PM 48.5667 -89.7000 319° Northwest 250 288 14,100  Level Winnipeg Center
09:38PM 48.6333 -89.7833 320° Northwest 250 288 14,100 -60 Level Winnipeg Center
09:39PM 48.6667 -89.8500 307° West 250 288 14,000 -60 Descending Winnipeg Center
09:40PM 48.7167 -89.9167 319° Northwest 250 288 14,000  Level Winnipeg Center
09:41PM 48.7667 -89.9833 319° Northwest 250 288 14,000  Level Winnipeg Center
09:42PM 48.8333 -90.0833 315° West 250 288 14,000  Level Winnipeg Center
09:43PM 48.8833 -90.1167 336° Northwest 250 288 14,100  Climbing Winnipeg Center
09:44PM 48.9333 -90.2167 307° West 250 288 14,000 -60 Descending Winnipeg Center
09:45PM 48.9833 -90.2833 319° Northwest 250 288 14,000  Level Winnipeg Center
09:46PM 49.0333 -90.3500 319° Northwest 250 288 14,100  Climbing Winnipeg Center
09:47PM 49.0833 -90.4167 319° Northwest 250 288 14,100 -60 Level Winnipeg Center
09:48PM 49.1333 -90.5000 313° West 250 288 14,000  Descending Winnipeg Center
09:49PM 49.2000 -90.5667 327° Northwest 250 288 14,100  Climbing Winnipeg Center
09:50PM 49.2333 -90.6333 307° West 250 288 14,000 -60 Descending Winnipeg Center
09:51PM 49.2833 -90.7000 319° Northwest 240 276 14,000  Level Winnipeg Center
09:52PM 49.3333 -90.7833 313° West 240 276 14,100  Climbing Winnipeg Center
09:53PM 49.4000 -90.8500 327° Northwest 240 276 14,100  Level Winnipeg Center
09:54PM 49.4333 -90.9167 308° West 250 288 14,100  Level Winnipeg Center
09:55PM 49.4833 -90.9833 319° Northwest 250 288 14,100 -60 Level Winnipeg Center
09:56PM 49.5333 -91.0667 313° West 250 288 14,000 -60 Descending Winnipeg Center
09:57PM 49.6000 -91.1333 327° Northwest 250 288 14,000  Level Winnipeg Center
09:58PM 49.6500 -91.2000 319° Northwest 250 288 14,000 -120 Level Winnipeg Center
09:59PM 49.6833 -91.2667 308° West 250 288 13,800 -300 Descending Winnipeg Center
10:00PM 49.7333 -91.3500 313° West 250 288 13,500 -540 Descending Winnipeg Center
10:01PM 49.8000 -91.4500 316° Northwest 260 299 12,800 -1,200 Descending Winnipeg Center
10:02PM 49.8500 -91.5167 319° Northwest 260 299 11,100 -2,100 Descending Winnipeg Center
10:03PM 49.8833 -91.5833 308° West 250 288 8,600 -2,640 Descending Winnipeg Center
10:04PM 49.9333 -91.6833 308° West 250 288 5,900 -2,220 Descending Winnipeg Center
10:05PM 49.9833 -91.7667 313° West 250 288 4,200 -1,500 Descending Winnipeg Center
10:06PM 50.0167 -91.8000 327° Northwest 200 230 2,900 -1,140 Descending Winnipeg Center
10:07PM 50.0500 -91.8500 316° Northwest 160 184 2,000 -900 Descending Winnipeg Center